createdAt,value
2022-10-16T00:01:16.336Z,16.82
2022-10-16T00:03:50.993Z,17.00
2022-10-16T00:06:21.478Z,16.97
2022-10-16T00:08:50.817Z,16.82
2022-10-16T00:11:19.865Z,16.90
2022-10-16T00:13:54.788Z,16.99
2022-10-16T00:16:23.363Z,16.82
2022-10-16T00:18:54.552Z,16.60
2022-10-16T00:21:25.079Z,16.75
2022-10-16T00:24:15.555Z,16.56
2022-10-16T00:26:45.055Z,16.39
2022-10-16T00:29:21.707Z,16.55
2022-10-16T00:31:50.251Z,16.47
2022-10-16T00:34:21.510Z,16.69
2022-10-16T00:36:51.429Z,16.50
2022-10-16T00:39:20.784Z,16.25
2022-10-16T00:41:49.322Z,16.37
2022-10-16T00:44:36.745Z,16.18
2022-10-16T00:47:06.595Z,16.10
2022-10-16T00:49:35.679Z,16.19
2022-10-16T00:52:09.446Z,16.10
2022-10-16T00:54:39.851Z,15.99
2022-10-16T00:57:11.383Z,16.16
2022-10-16T00:59:41.822Z,16.13
2022-10-16T01:02:12.937Z,16.10
2022-10-16T01:04:42.276Z,15.97
2022-10-16T01:07:16.811Z,15.91
2022-10-16T01:09:53.861Z,15.86
2022-10-16T01:12:24.229Z,15.77
2022-10-16T01:14:55.256Z,15.85
2022-10-16T01:17:24.844Z,15.85
2022-10-16T01:19:59.302Z,15.67
2022-10-16T01:22:30.628Z,15.67
2022-10-16T01:25:00.155Z,15.65
2022-10-16T01:27:30.501Z,15.59
2022-10-16T01:30:01.509Z,15.54
2022-10-16T01:32:31.352Z,15.53
2022-10-16T01:35:02.628Z,15.37
2022-10-16T01:37:38.251Z,15.45
2022-10-16T01:40:12.569Z,15.40
2022-10-16T01:42:45.935Z,15.27
2022-10-16T01:45:19.363Z,15.27
2022-10-16T01:47:50.074Z,15.30
2022-10-16T01:50:19.377Z,15.24
2022-10-16T01:52:49.020Z,14.93
2022-10-16T01:55:18.527Z,15.08
2022-10-16T02:00:18.997Z,14.97
2022-10-16T02:02:53.687Z,14.92
2022-10-16T02:05:23.197Z,14.70
2022-10-16T02:07:52.134Z,14.59
2022-10-16T02:10:20.498Z,14.39
2022-10-16T02:13:00.342Z,14.47
2022-10-16T02:15:29.244Z,14.55
2022-10-16T02:18:01.721Z,14.68
2022-10-16T02:23:06.231Z,14.69
2022-10-16T02:25:39.155Z,14.50
2022-10-16T02:28:11.228Z,14.52
2022-10-16T02:30:43.621Z,14.51
2022-10-16T02:33:12.730Z,14.63
2022-10-16T02:35:42.167Z,14.58
2022-10-16T02:38:12.192Z,14.46
2022-10-16T02:40:43.635Z,14.46
2022-10-16T02:43:13.599Z,14.47
2022-10-16T02:45:44.315Z,14.48
2022-10-16T02:48:13.514Z,14.56
2022-10-16T02:50:45.187Z,14.49
2022-10-16T02:53:13.791Z,14.39
2022-10-16T02:55:43.042Z,14.38
2022-10-16T03:00:49.765Z,14.35
2022-10-16T03:03:18.390Z,14.33
2022-10-16T03:05:50.906Z,14.24
2022-10-16T03:08:25.054Z,14.13
2022-10-16T03:11:01.549Z,14.21
2022-10-16T03:13:35.048Z,14.22
2022-10-16T03:16:03.580Z,14.24
2022-10-16T03:18:32.884Z,14.13
2022-10-16T03:21:01.418Z,14.18
2022-10-16T03:23:33.240Z,14.08
2022-10-16T03:26:02.604Z,14.07
2022-10-16T03:28:38.729Z,14.03
2022-10-16T03:31:07.980Z,13.94
2022-10-16T03:33:41.055Z,14.04
2022-10-16T03:36:09.600Z,13.98
2022-10-16T03:38:41.678Z,13.94
2022-10-16T03:41:10.286Z,13.87
2022-10-16T03:43:45.195Z,13.83
2022-10-16T03:46:13.790Z,13.93
2022-10-16T03:48:46.181Z,13.82
2022-10-16T03:51:14.783Z,13.81
2022-10-16T03:53:46.896Z,13.82
2022-10-16T03:56:15.654Z,13.77
2022-10-16T03:58:49.035Z,13.78
2022-10-16T04:01:17.786Z,13.85
2022-10-16T04:03:46.970Z,13.88
2022-10-16T04:06:15.234Z,13.77
2022-10-16T04:08:53.360Z,13.57
2022-10-16T04:11:21.948Z,13.68
2022-10-16T04:13:51.864Z,13.75
2022-10-16T04:16:20.265Z,13.65
2022-10-16T04:18:49.194Z,13.80
2022-10-16T04:21:18.119Z,13.63
2022-10-16T04:23:46.589Z,13.68
2022-10-16T04:26:19.024Z,13.62
2022-10-16T04:31:37.079Z,13.59
2022-10-16T04:34:08.253Z,13.43
2022-10-16T04:36:39.876Z,13.48
2022-10-16T04:39:08.150Z,13.51
2022-10-16T04:41:39.600Z,13.52
2022-10-16T04:44:08.256Z,13.53
2022-10-16T04:46:41.007Z,13.41
2022-10-16T04:49:09.316Z,13.55
2022-10-16T04:51:41.482Z,13.46
2022-10-16T04:54:10.369Z,13.44
2022-10-16T04:56:48.718Z,13.48
2022-10-16T04:59:17.005Z,13.30
2022-10-16T05:01:47.203Z,13.40
2022-10-16T05:04:16.376Z,13.45
2022-10-16T05:06:50.240Z,13.29
2022-10-16T05:09:18.834Z,13.27
2022-10-16T05:11:48.619Z,13.24
2022-10-16T05:14:16.891Z,13.06
2022-10-16T05:16:52.242Z,13.25
2022-10-16T05:19:29.073Z,13.37
2022-10-16T05:21:59.629Z,13.11
2022-10-16T05:24:36.633Z,13.21
2022-10-16T05:27:05.551Z,13.24
2022-10-16T05:29:37.231Z,13.18
2022-10-16T05:32:07.506Z,13.26
2022-10-16T05:34:44.633Z,13.15
2022-10-16T05:37:16.214Z,12.96
2022-10-16T05:39:47.481Z,13.05
2022-10-16T05:42:19.552Z,13.09
2022-10-16T05:44:47.833Z,13.30
2022-10-16T05:47:22.347Z,13.33
2022-10-16T05:49:50.645Z,13.41
2022-10-16T05:52:27.277Z,13.38
2022-10-16T05:54:55.899Z,13.37
2022-10-16T05:57:26.141Z,13.52
2022-10-16T05:59:54.698Z,13.43
2022-10-16T06:02:27.213Z,13.41
2022-10-16T06:04:56.118Z,13.37
2022-10-16T06:07:30.063Z,13.39
2022-10-16T06:09:58.603Z,13.42
2022-10-16T06:12:30.569Z,13.61
2022-10-16T06:14:59.772Z,13.62
2022-10-16T06:17:30.546Z,13.70
2022-10-16T06:19:59.226Z,13.78
2022-10-16T06:22:28.386Z,13.89
2022-10-16T06:24:57.911Z,13.86
2022-10-16T06:27:27.174Z,14.00
2022-10-16T06:29:58.277Z,13.97
2022-10-16T06:32:28.628Z,13.81
2022-10-16T06:34:59.336Z,13.83
2022-10-16T06:37:29.283Z,13.91
2022-10-16T06:39:58.349Z,13.97
2022-10-16T06:42:27.177Z,14.04
2022-10-16T06:44:57.065Z,14.19
2022-10-16T06:47:25.891Z,14.18
2022-10-16T06:49:57.583Z,14.25
2022-10-16T06:52:28.202Z,14.41
2022-10-16T06:54:56.944Z,14.35
2022-10-16T06:57:26.722Z,14.44
2022-10-16T06:59:55.756Z,14.40
2022-10-16T07:02:26.405Z,14.54
2022-10-16T07:04:56.186Z,14.52
2022-10-16T07:07:25.780Z,14.65
2022-10-16T07:09:56.613Z,14.67
2022-10-16T07:12:31.535Z,14.77
2022-10-16T07:15:07.058Z,14.84
2022-10-16T07:17:35.656Z,14.62
2022-10-16T07:20:05.683Z,14.67
2022-10-16T07:22:34.260Z,14.89
2022-10-16T07:25:12.080Z,14.73
2022-10-16T07:27:40.733Z,14.93
2022-10-16T07:30:18.403Z,15.04
2022-10-16T07:32:53.482Z,14.97
2022-10-16T07:35:23.588Z,15.12
2022-10-16T07:37:53.599Z,15.15
2022-10-16T07:40:23.615Z,15.22
2022-10-16T07:42:56.286Z,15.23
2022-10-16T07:45:24.885Z,15.45
2022-10-16T07:47:53.972Z,15.49
2022-10-16T07:50:22.604Z,15.35
2022-10-16T07:52:53.689Z,15.26
2022-10-16T07:55:24.868Z,15.45
2022-10-16T08:00:27.211Z,15.03
2022-10-16T08:03:01.397Z,15.49
2022-10-16T08:05:29.765Z,15.57
2022-10-16T08:08:02.011Z,15.47
2022-10-16T08:10:32.695Z,15.72
2022-10-16T08:13:03.406Z,15.87
2022-10-16T08:15:31.861Z,15.51
2022-10-16T08:18:04.748Z,15.64
2022-10-16T08:20:33.889Z,15.81
2022-10-16T08:23:03.705Z,15.91
2022-10-16T08:25:34.323Z,15.97
2022-10-16T08:28:12.827Z,15.96
2022-10-16T08:30:43.384Z,16.03
2022-10-16T08:33:54.778Z,15.99
2022-10-16T08:36:46.818Z,15.79
2022-10-16T08:39:26.210Z,16.09
2022-10-16T08:42:51.292Z,16.38
2022-10-16T08:45:36.554Z,16.39
2022-10-16T08:48:38.204Z,16.41
2022-10-16T08:51:06.987Z,16.58
2022-10-16T08:53:37.707Z,16.66
2022-10-16T08:56:06.726Z,16.59
2022-10-16T08:58:39.672Z,16.65
2022-10-16T09:01:20.622Z,16.59
2022-10-16T09:04:03.789Z,16.63
2022-10-16T09:06:42.300Z,16.83
2022-10-16T09:09:31.602Z,16.88
2022-10-16T09:12:01.627Z,16.70
2022-10-16T09:14:37.954Z,16.73
2022-10-16T09:17:10.630Z,16.98
2022-10-16T09:19:40.840Z,17.06
2022-10-16T09:22:12.024Z,16.98
2022-10-16T09:24:41.264Z,16.67
2022-10-16T09:27:13.346Z,16.94
2022-10-16T09:29:42.235Z,17.21
2022-10-16T09:32:14.960Z,17.21
2022-10-16T09:34:48.411Z,17.30
2022-10-16T09:37:21.758Z,17.45
2022-10-16T09:39:55.013Z,17.55
2022-10-16T09:42:27.018Z,17.73
2022-10-16T09:44:59.295Z,17.85
2022-10-16T09:47:30.271Z,17.71
2022-10-16T09:50:03.491Z,17.89
2022-10-16T09:52:32.135Z,17.91
2022-10-16T09:55:04.843Z,17.98
2022-10-16T09:57:33.197Z,18.16
2022-10-16T10:00:05.534Z,18.19
2022-10-16T10:02:37.023Z,18.32
2022-10-16T10:05:07.549Z,18.25
2022-10-16T10:07:38.345Z,18.56
2022-10-16T10:10:07.857Z,18.16
2022-10-16T10:12:37.636Z,18.23
2022-10-16T10:15:12.155Z,18.37
2022-10-16T10:17:52.436Z,18.60
2022-10-16T10:20:25.310Z,18.52
2022-10-16T10:23:01.794Z,18.78
2022-10-16T10:25:37.538Z,18.85
2022-10-16T10:28:09.599Z,18.67
2022-10-16T10:30:45.389Z,19.01
2022-10-16T10:33:27.093Z,19.00
2022-10-16T10:35:59.204Z,18.91
2022-10-16T10:38:33.843Z,19.00
2022-10-16T10:41:07.508Z,19.23
2022-10-16T10:43:44.523Z,19.25
2022-10-16T10:46:14.556Z,19.19
2022-10-16T10:48:59.473Z,19.31
2022-10-16T10:51:32.883Z,19.37
2022-10-16T10:54:12.818Z,19.40
2022-10-16T10:56:45.551Z,19.54
2022-10-16T10:59:35.603Z,19.55
2022-10-16T11:02:05.565Z,19.74
2022-10-16T11:04:49.684Z,19.78
2022-10-16T11:07:21.092Z,19.86
2022-10-16T11:09:50.245Z,19.88
2022-10-16T11:12:22.901Z,19.92
2022-10-16T11:14:55.431Z,19.88
2022-10-16T11:17:34.125Z,20.07
2022-10-16T11:20:05.337Z,19.75
2022-10-16T11:22:37.190Z,19.96
2022-10-16T11:25:14.055Z,20.26
2022-10-16T11:27:47.176Z,20.07
2022-10-16T11:30:16.720Z,20.12
2022-10-16T11:32:51.545Z,20.02
2022-10-16T11:35:22.736Z,20.19
2022-10-16T11:38:01.862Z,20.12
2022-10-16T11:40:31.409Z,20.48
2022-10-16T11:43:01.466Z,20.31
2022-10-16T11:45:35.889Z,20.49
2022-10-16T11:48:05.633Z,20.45
2022-10-16T11:50:39.872Z,20.45
2022-10-16T11:53:17.820Z,20.55
2022-10-16T11:55:47.639Z,20.46
2022-10-16T12:00:49.869Z,20.74
2022-10-16T12:03:22.114Z,20.81
2022-10-16T12:05:55.191Z,20.94
2022-10-16T12:08:28.139Z,20.92
2022-10-16T12:11:06.454Z,21.02
2022-10-16T12:13:36.398Z,21.12
2022-10-16T12:16:09.453Z,21.18
2022-10-16T12:18:38.510Z,21.10
2022-10-16T12:21:08.767Z,21.38
2022-10-16T12:23:40.572Z,21.41
2022-10-16T12:26:14.742Z,21.37
2022-10-16T12:28:50.276Z,21.30
2022-10-16T12:31:30.682Z,21.38
2022-10-16T12:34:04.870Z,21.20
2022-10-16T12:36:35.650Z,21.31
2022-10-16T12:39:05.385Z,21.37
2022-10-16T12:41:39.234Z,21.24
2022-10-16T12:44:08.064Z,21.29
2022-10-16T12:46:40.246Z,21.27
2022-10-16T12:49:22.599Z,21.09
2022-10-16T12:51:51.805Z,21.47
2022-10-16T12:54:22.926Z,21.21
2022-10-16T12:56:54.691Z,21.38
2022-10-16T12:59:28.715Z,21.27
2022-10-16T13:02:06.677Z,21.37
2022-10-16T13:05:11.476Z,21.31
2022-10-16T13:07:44.960Z,21.31
2022-10-16T13:10:25.680Z,21.38
2022-10-16T13:13:03.047Z,21.42
2022-10-16T13:15:47.610Z,21.54
2022-10-16T13:18:22.242Z,21.57
2022-10-16T13:20:56.711Z,21.52
2022-10-16T13:23:29.293Z,21.54
2022-10-16T13:26:07.013Z,21.61
2022-10-16T13:28:37.306Z,21.52
2022-10-16T13:31:16.109Z,21.69
2022-10-16T13:33:46.280Z,21.57
2022-10-16T13:36:22.716Z,21.37
2022-10-16T13:39:11.286Z,21.48
2022-10-16T13:41:42.039Z,21.37
2022-10-16T13:44:14.547Z,21.29
2022-10-16T13:46:43.110Z,21.24
2022-10-16T13:49:15.875Z,21.33
2022-10-16T13:51:57.209Z,21.48
2022-10-16T13:54:26.904Z,21.46
2022-10-16T13:57:03.566Z,21.09
2022-10-16T13:59:41.783Z,21.21
2022-10-16T14:02:12.821Z,20.99
2022-10-16T14:04:48.880Z,21.00
2022-10-16T14:07:23.905Z,21.08
2022-10-16T14:09:53.577Z,21.04
2022-10-16T14:12:28.363Z,20.96
2022-10-16T14:14:58.930Z,21.04
2022-10-16T14:17:28.751Z,20.64
2022-10-16T14:20:00.937Z,21.08
2022-10-16T14:22:32.687Z,20.93
2022-10-16T14:25:01.935Z,20.82
2022-10-16T14:27:38.328Z,20.91
2022-10-16T14:30:17.834Z,20.70
2022-10-16T14:32:55.326Z,20.51
2022-10-16T14:35:25.074Z,20.45
2022-10-16T14:37:58.795Z,20.53
2022-10-16T14:40:28.134Z,20.44
2022-10-16T14:43:01.262Z,20.51
2022-10-16T14:45:39.964Z,20.57
2022-10-16T14:48:08.695Z,20.37
2022-10-16T14:50:41.293Z,20.30
2022-10-16T14:53:11.245Z,20.29
2022-10-16T14:55:59.029Z,20.08
2022-10-16T15:02:16.085Z,20.23
2022-10-16T15:04:59.144Z,20.13
2022-10-16T15:07:27.901Z,20.02
2022-10-16T15:09:58.356Z,20.03
2022-10-16T15:12:27.011Z,19.87
2022-10-16T15:14:58.108Z,19.73
2022-10-16T15:17:29.725Z,19.55
2022-10-16T15:20:05.946Z,19.67
2022-10-16T15:22:35.109Z,19.61
2022-10-16T15:25:06.659Z,19.48
2022-10-16T15:27:43.346Z,19.31
2022-10-16T15:30:12.321Z,19.33
2022-10-16T15:32:48.277Z,19.19
2022-10-16T15:35:18.251Z,19.24
2022-10-16T15:37:48.397Z,19.11
2022-10-16T15:40:17.157Z,19.07
2022-10-16T15:42:50.524Z,18.97
2022-10-16T15:45:20.446Z,18.91
2022-10-16T15:47:52.328Z,18.83
2022-10-16T15:50:22.675Z,18.78
2022-10-16T15:52:51.899Z,18.72
2022-10-16T15:55:20.957Z,18.60
2022-10-16T15:57:51.263Z,18.62
2022-10-16T16:00:26.487Z,18.47
2022-10-16T16:02:56.640Z,18.30
2022-10-16T16:05:26.349Z,18.27
2022-10-16T16:07:58.216Z,18.26
2022-10-16T16:10:27.097Z,18.22
2022-10-16T16:13:00.133Z,18.22
2022-10-16T16:15:28.750Z,18.04
2022-10-16T16:17:58.534Z,17.92
2022-10-16T16:20:28.930Z,17.95
2022-10-16T16:23:01.903Z,17.66
2022-10-16T16:25:30.800Z,17.69
2022-10-16T16:28:08.196Z,17.71
2022-10-16T16:30:37.077Z,17.68
2022-10-16T16:33:09.041Z,17.54
2022-10-16T16:35:38.984Z,17.48
2022-10-16T16:38:15.812Z,17.51
2022-10-16T16:40:47.133Z,17.47
2022-10-16T16:43:16.470Z,17.38
2022-10-16T16:45:45.751Z,17.34
2022-10-16T16:48:15.797Z,17.30
2022-10-16T16:50:51.385Z,17.22
2022-10-16T16:53:21.424Z,17.09
2022-10-16T16:55:51.047Z,17.09
2022-10-16T17:00:57.070Z,17.01
2022-10-16T17:03:38.643Z,17.05
2022-10-16T17:06:08.443Z,17.20
2022-10-16T17:08:39.137Z,17.02
2022-10-16T17:11:08.407Z,16.95
2022-10-16T17:13:40.649Z,16.92
2022-10-16T17:16:09.681Z,16.98
2022-10-16T17:18:44.515Z,16.74
2022-10-16T17:21:28.396Z,16.62
2022-10-16T17:24:05.342Z,16.69
2022-10-16T17:26:45.750Z,16.77
2022-10-16T17:29:15.201Z,16.69
2022-10-16T17:31:47.240Z,16.79
2022-10-16T17:34:16.419Z,16.67
2022-10-16T17:36:48.259Z,16.53
2022-10-16T17:39:20.947Z,16.57
2022-10-16T17:41:54.009Z,16.56
2022-10-16T17:44:24.173Z,16.73
2022-10-16T17:47:02.423Z,16.64
2022-10-16T17:49:32.784Z,16.69
2022-10-16T17:52:03.533Z,16.53
2022-10-16T17:54:36.761Z,16.40
2022-10-16T17:57:05.991Z,16.28
2022-10-16T17:59:38.977Z,16.16
2022-10-16T18:02:08.618Z,16.19
2022-10-16T18:04:38.488Z,16.40
2022-10-16T18:07:07.573Z,16.12
2022-10-16T18:10:09.787Z,16.07
2022-10-16T18:12:31.352Z,15.98
2022-10-16T18:15:04.973Z,16.03
2022-10-16T18:17:38.405Z,16.03
2022-10-16T18:20:11.799Z,16.03
2022-10-16T18:25:16.987Z,15.81
2022-10-16T18:27:49.509Z,15.95
2022-10-16T18:30:19.754Z,16.02
2022-10-16T18:32:54.701Z,16.00
2022-10-16T18:35:24.115Z,16.02
2022-10-16T18:37:56.525Z,15.81
2022-10-16T18:40:27.519Z,15.79
2022-10-16T18:43:02.962Z,15.84
2022-10-16T18:45:39.905Z,15.69
2022-10-16T18:48:09.149Z,15.65
2022-10-16T18:50:38.635Z,15.73
2022-10-16T18:53:07.480Z,15.65
2022-10-16T18:55:39.414Z,15.40
2022-10-16T19:00:39.444Z,15.55
2022-10-16T19:03:08.944Z,15.49
2022-10-16T19:05:41.893Z,15.38
2022-10-16T19:08:11.476Z,15.43
2022-10-16T19:10:49.354Z,15.32
2022-10-16T19:13:19.932Z,15.27
2022-10-16T19:15:58.645Z,15.21
2022-10-16T19:18:39.995Z,15.24
2022-10-16T19:21:10.310Z,15.27
2022-10-16T19:23:39.978Z,15.23
2022-10-16T19:26:13.366Z,15.18
2022-10-16T19:28:42.529Z,15.23
2022-10-16T19:31:13.261Z,15.14
2022-10-16T19:33:42.934Z,15.14
2022-10-16T19:36:13.602Z,15.13
2022-10-16T19:38:43.395Z,15.11
2022-10-16T19:41:18.407Z,15.09
2022-10-16T19:43:55.856Z,15.04
2022-10-16T19:46:24.992Z,15.13
2022-10-16T19:49:01.247Z,15.17
2022-10-16T19:51:31.270Z,15.04
2022-10-16T19:54:02.408Z,15.10
2022-10-16T19:56:32.845Z,15.06
2022-10-16T19:59:05.220Z,15.07
2022-10-16T20:01:34.112Z,15.08
2022-10-16T20:04:06.308Z,15.05
2022-10-16T20:06:34.612Z,15.11
2022-10-16T20:09:03.605Z,15.11
2022-10-16T20:11:33.647Z,15.09
2022-10-16T20:14:08.403Z,14.97
2022-10-16T20:16:37.250Z,14.97
2022-10-16T20:19:08.971Z,14.97
2022-10-16T20:21:39.676Z,14.93
2022-10-16T20:24:16.268Z,14.77
2022-10-16T20:26:49.345Z,14.78
2022-10-16T20:29:21.284Z,14.65
2022-10-16T20:31:50.375Z,14.54
2022-10-16T20:34:18.962Z,14.59
2022-10-16T20:36:52.798Z,14.56
2022-10-16T20:39:21.414Z,14.59
2022-10-16T20:41:56.389Z,14.52
2022-10-16T20:44:26.316Z,14.48
2022-10-16T20:46:56.793Z,14.54
2022-10-16T20:49:40.296Z,14.26
2022-10-16T20:52:10.904Z,14.43
2022-10-16T20:54:45.846Z,14.33
2022-10-16T20:57:14.632Z,14.34
2022-10-16T20:59:47.715Z,14.35
2022-10-16T21:02:16.099Z,14.44
2022-10-16T21:04:48.371Z,14.48
2022-10-16T21:07:17.200Z,14.34
2022-10-16T21:09:53.294Z,14.38
2022-10-16T21:12:27.345Z,14.43
2022-10-16T21:15:13.817Z,14.41
2022-10-16T21:17:42.778Z,14.39
2022-10-16T21:20:19.156Z,14.38
2022-10-16T21:22:52.018Z,14.32
2022-10-16T21:25:21.593Z,14.31
2022-10-16T21:27:56.041Z,14.14
2022-10-16T21:30:26.268Z,14.16
2022-10-16T21:32:57.084Z,14.13
2022-10-16T21:35:25.978Z,14.20
2022-10-16T21:37:54.551Z,14.23
2022-10-16T21:40:23.492Z,14.25
2022-10-16T21:42:53.981Z,14.16
2022-10-16T21:45:27.210Z,14.12
2022-10-16T21:47:59.098Z,14.19
2022-10-16T21:50:27.720Z,14.09
2022-10-16T21:53:02.417Z,14.05
2022-10-16T21:55:31.038Z,14.02
2022-10-16T22:00:32.177Z,14.02
2022-10-16T22:03:01.939Z,14.03
2022-10-16T22:05:31.139Z,14.09
2022-10-16T22:08:01.388Z,14.05
2022-10-16T22:10:34.005Z,14.07
2022-10-16T22:13:08.881Z,14.01
2022-10-16T22:15:38.878Z,14.00
2022-10-16T22:18:09.890Z,13.95
2022-10-16T22:20:38.548Z,14.06
2022-10-16T22:23:09.847Z,13.97
2022-10-16T22:25:39.074Z,13.95
2022-10-16T22:28:08.041Z,14.05
2022-10-16T22:30:41.187Z,13.99
2022-10-16T22:33:11.401Z,13.93
2022-10-16T22:35:40.669Z,13.85
2022-10-16T22:38:11.416Z,13.77
2022-10-16T22:40:40.011Z,13.82
2022-10-16T22:43:08.651Z,13.85
2022-10-16T22:45:37.544Z,13.78
2022-10-16T22:48:10.131Z,13.67
2022-10-16T22:50:39.107Z,13.68
2022-10-16T22:53:11.915Z,13.54
2022-10-16T22:55:40.474Z,13.59
2022-10-16T22:58:09.056Z,13.71
2022-10-16T23:00:39.204Z,13.66
2022-10-16T23:03:08.957Z,13.42
2022-10-16T23:05:40.398Z,13.53
2022-10-16T23:08:10.262Z,13.44
2022-10-16T23:10:42.761Z,13.29
2022-10-16T23:13:11.031Z,13.21
2022-10-16T23:15:40.675Z,13.18
2022-10-16T23:18:10.647Z,13.22
2022-10-16T23:20:44.357Z,13.26
2022-10-16T23:23:12.894Z,13.27
2022-10-16T23:25:46.365Z,13.29
2022-10-16T23:30:44.454Z,13.32
2022-10-16T23:33:14.438Z,13.32
2022-10-16T23:35:45.298Z,13.20
2022-10-16T23:38:15.911Z,13.21
2022-10-16T23:40:48.924Z,13.36
2022-10-16T23:43:17.206Z,13.40
2022-10-16T23:45:52.400Z,13.29
2022-10-16T23:48:22.100Z,13.23
2022-10-16T23:50:52.740Z,13.33
2022-10-16T23:53:21.648Z,13.32
2022-10-16T23:55:54.031Z,13.20
